Teller, Alaska
Current Conditions -  °F | °C
As of 6:58 PM on Wednesday 22 Oct 2014 (Local Time) from PATE Reporting Station
Overcast Overcast  
Wind Chill: 21°   Ceiling: 2100
Heat Index: 29°   Visibility: 10mi
Dew Point: 24°   Wind: 8mph
Humidity: 82%   Direction: 330°NNW
Pressure: 29.85"   Gusts: NA
Location:  65.26°N, 166.36°W
Report Text: PATE 230258Z AUTO 33007KT 10SM OVC021 M02/M04 A2985 RMK AO2 SNE0159 SLP123 60000 T10171044 51007 FZRANO
Loading
Personal Weather Stations






























Interactive Weather Map
Tropical Storm Tracking
New forecast layout! Learn more

10-Day Weather Forecast

Advertisements
Track Severe Weather on mobile